createdAt,value
2024-01-15T00:08:15.793Z,94215.84
2024-01-15T00:11:08.387Z,94221.88
2024-01-15T00:13:51.764Z,94232.69
2024-01-15T00:20:16.541Z,94233.22
2024-01-15T00:23:18.654Z,94223.88
2024-01-15T00:26:30.483Z,94225.53
2024-01-15T00:33:41.248Z,94233.56
2024-01-15T00:35:48.444Z,94222.53
2024-01-15T00:42:56.440Z,94240.69
2024-01-15T00:45:37.795Z,94248.28
2024-01-15T00:48:25.668Z,94251.53
2024-01-15T00:51:01.059Z,94248.41
2024-01-15T00:53:44.657Z,94255.53
2024-01-15T00:56:14.280Z,94261.34
2024-01-15T01:02:08.401Z,94257.00
2024-01-15T01:05:11.903Z,94254.44
2024-01-15T01:08:24.527Z,94259.81
2024-01-15T01:10:54.397Z,94264.19
2024-01-15T01:13:43.196Z,94267.75
2024-01-15T01:16:17.395Z,94257.63
2024-01-15T01:18:53.038Z,94260.97
2024-01-15T01:21:32.063Z,94264.19
2024-01-15T01:24:04.643Z,94256.63
2024-01-15T01:26:37.917Z,94268.88
2024-01-15T01:29:38.238Z,94267.41
2024-01-15T01:32:39.631Z,94273.66
2024-01-15T01:35:44.723Z,94263.19
2024-01-15T01:38:41.511Z,94281.19
2024-01-15T01:41:38.464Z,94272.75
2024-01-15T01:44:13.612Z,94282.41
2024-01-15T01:46:54.962Z,94287.84
2024-01-15T01:49:55.417Z,94284.31
2024-01-15T01:52:50.608Z,94280.97
2024-01-15T01:56:20.190Z,94283.38
2024-01-15T02:00:23.845Z,94284.97
2024-01-15T02:02:36.239Z,94299.31
2024-01-15T02:05:52.722Z,94282.75
2024-01-15T02:08:41.868Z,94278.81
2024-01-15T02:11:27.267Z,94290.19
2024-01-15T02:14:10.852Z,94287.50
2024-01-15T02:27:08.625Z,94295.38
2024-01-15T02:30:04.809Z,94299.72
2024-01-15T02:33:08.166Z,94292.28
2024-01-15T02:35:42.420Z,94304.63
2024-01-15T02:38:21.377Z,94310.84
2024-01-15T02:41:38.776Z,94314.97
2024-01-15T02:44:48.762Z,94315.41
2024-01-15T02:47:35.211Z,94306.03
2024-01-15T02:53:09.489Z,94321.59
2024-01-15T02:56:11.902Z,94327.16
2024-01-15T02:59:16.499Z,94310.47
2024-01-15T03:02:04.238Z,94313.16
2024-01-15T03:07:03.926Z,94314.09
2024-01-15T03:11:10.121Z,94311.03
2024-01-15T03:13:57.265Z,94308.56
2024-01-15T03:16:49.932Z,94314.25
2024-01-15T03:20:59.229Z,94316.59
2024-01-15T03:26:34.032Z,94308.06
2024-01-15T03:29:13.152Z,94302.72
2024-01-15T03:35:21.146Z,94293.69
2024-01-15T03:38:35.227Z,94297.91
2024-01-15T03:48:56.919Z,94308.13
2024-01-15T03:52:37.969Z,94311.47
2024-01-15T03:55:52.982Z,94302.47
2024-01-15T03:59:21.955Z,94300.59
2024-01-15T04:02:39.529Z,94296.13
2024-01-15T04:05:46.613Z,94307.88
2024-01-15T04:08:48.026Z,94288.72
2024-01-15T04:11:59.378Z,94295.34
2024-01-15T04:15:05.908Z,94280.41
2024-01-15T04:17:52.604Z,94281.44
2024-01-15T04:20:34.025Z,94276.31
2024-01-15T04:23:23.306Z,94282.53
2024-01-15T04:26:07.349Z,94287.13
2024-01-15T04:28:46.762Z,94289.00
2024-01-15T04:32:08.885Z,94284.63
2024-01-15T04:34:44.663Z,94291.56
2024-01-15T04:37:22.433Z,94301.03
2024-01-15T04:40:03.368Z,94293.69
2024-01-15T04:42:41.909Z,94288.22
2024-01-15T04:45:37.624Z,94285.69
2024-01-15T04:48:59.371Z,94278.88
2024-01-15T04:51:41.905Z,94277.44
2024-01-15T04:54:27.726Z,94279.09
2024-01-15T04:57:26.029Z,94279.50
2024-01-15T05:02:58.873Z,94279.66
2024-01-15T05:05:47.026Z,94282.09
2024-01-15T05:08:49.145Z,94280.53
2024-01-15T05:12:33.250Z,94288.63
2024-01-15T05:17:41.455Z,94270.22
2024-01-15T05:20:37.968Z,94268.97
2024-01-15T05:27:24.229Z,94285.13
2024-01-15T05:30:09.662Z,94273.97
2024-01-15T05:33:15.138Z,94276.75
2024-01-15T05:35:58.305Z,94287.97
2024-01-15T05:42:46.802Z,94266.88
2024-01-15T05:45:47.464Z,94276.31
2024-01-15T05:53:15.242Z,94285.22
2024-01-15T05:56:11.192Z,94278.53
2024-01-15T05:59:06.194Z,94277.75
2024-01-15T06:04:39.742Z,94270.84
2024-01-15T06:07:51.934Z,94270.06
2024-01-15T06:13:42.092Z,94278.75
2024-01-15T06:16:28.297Z,94272.41
2024-01-15T06:19:21.009Z,94279.31
2024-01-15T06:21:55.481Z,94276.66
2024-01-15T06:24:22.948Z,94281.16
2024-01-15T06:26:50.310Z,94281.59
2024-01-15T06:29:17.606Z,94278.41
2024-01-15T06:31:57.536Z,94270.03
2024-01-15T06:34:29.341Z,94277.56
2024-01-15T06:37:22.812Z,94284.13
2024-01-15T06:40:29.459Z,94273.78
2024-01-15T06:43:10.736Z,94271.66
2024-01-15T06:46:10.675Z,94274.44
2024-01-15T06:48:56.896Z,94284.16
2024-01-15T06:51:37.617Z,94292.25
2024-01-15T06:54:34.622Z,94282.69
2024-01-15T06:57:14.531Z,94277.13
2024-01-15T07:00:27.059Z,94288.78
2024-01-15T07:02:57.756Z,94283.66
2024-01-15T07:05:52.226Z,94271.44
2024-01-15T07:08:49.065Z,94283.47
2024-01-15T07:11:35.344Z,94285.59
2024-01-15T07:14:33.462Z,94289.03
2024-01-15T07:17:51.406Z,94283.28
2024-01-15T07:20:19.267Z,94260.69
2024-01-15T07:22:56.858Z,94261.69
2024-01-15T07:25:40.257Z,94263.94
2024-01-15T07:28:18.905Z,94279.28
2024-01-15T07:31:09.299Z,94268.13
2024-01-15T07:33:51.588Z,94286.19
2024-01-15T07:36:41.394Z,94278.56
2024-01-15T07:39:27.018Z,94276.22
2024-01-15T07:42:13.537Z,94258.88
2024-01-15T07:44:52.532Z,94258.25
2024-01-15T07:47:36.664Z,94283.94
2024-01-15T07:50:28.240Z,94264.72
2024-01-15T07:52:58.174Z,94271.06
2024-01-15T07:55:37.404Z,94277.28
2024-01-15T07:58:14.795Z,94271.06
2024-01-15T08:04:01.602Z,94276.38
2024-01-15T08:13:18.513Z,94249.59
2024-01-15T08:16:14.935Z,94239.34
2024-01-15T08:19:05.958Z,94233.13
2024-01-15T08:21:55.924Z,94248.59
2024-01-15T08:24:31.132Z,94244.94
2024-01-15T08:27:05.866Z,94245.03
2024-01-15T08:29:44.500Z,94243.16
2024-01-15T08:32:35.774Z,94237.59
2024-01-15T08:35:18.331Z,94229.22
2024-01-15T08:37:46.266Z,94230.38
2024-01-15T08:40:15.982Z,94240.91
2024-01-15T08:45:17.261Z,94244.81
2024-01-15T08:46:03.606Z,94242.81
2024-01-15T08:48:40.831Z,94260.38
2024-01-15T08:51:24.343Z,94243.03
2024-01-15T08:53:59.095Z,94255.84
2024-01-15T08:56:33.791Z,94251.63
2024-01-15T08:59:16.587Z,94251.41
2024-01-15T09:01:51.464Z,94249.28
2024-01-15T09:08:10.354Z,94251.06
2024-01-15T09:10:52.937Z,94247.59
2024-01-15T09:13:39.838Z,94257.53
2024-01-15T09:16:14.198Z,94249.72
2024-01-15T09:19:15.674Z,94249.94
2024-01-15T09:21:37.704Z,94250.94
2024-01-15T09:24:08.618Z,94249.94
2024-01-15T09:26:56.520Z,94242.91
2024-01-15T09:29:25.600Z,94242.81
2024-01-15T09:32:06.660Z,94263.09
2024-01-15T09:34:52.360Z,94250.16
2024-01-15T09:37:44.688Z,94258.75
2024-01-15T09:40:24.727Z,94263.41
2024-01-15T09:43:13.152Z,94255.19
2024-01-15T09:45:46.895Z,94251.72
2024-01-15T09:48:21.279Z,94253.94
2024-01-15T09:51:11.239Z,94262.53
2024-01-15T09:53:45.202Z,94263.41
2024-01-15T09:56:26.209Z,94254.94
2024-01-15T09:59:09.957Z,94262.84
2024-01-15T10:01:59.914Z,94262.97
2024-01-15T10:04:35.875Z,94242.25
2024-01-15T10:07:16.567Z,94242.03
2024-01-15T10:10:09.302Z,94245.59
2024-01-15T10:48:30.298Z,94188.53
2024-01-15T10:51:29.198Z,94202.44
2024-01-15T10:54:29.840Z,94204.09
2024-01-15T10:57:21.236Z,94203.75
2024-01-15T11:00:10.875Z,94199.56
2024-01-15T11:03:01.862Z,94179.63
2024-01-15T11:05:55.831Z,94182.97
2024-01-15T11:08:44.199Z,94183.69
2024-01-15T11:11:31.973Z,94167.19
2024-01-15T11:35:21.797Z,94166.41
2024-01-15T11:40:53.207Z,94167.72
2024-01-15T11:46:57.320Z,94170.25
2024-01-15T11:50:02.071Z,94160.94
2024-01-15T11:53:38.740Z,94169.84
2024-01-15T12:12:38.023Z,94130.19
2024-01-15T12:15:31.221Z,94130.00
2024-01-15T12:18:19.878Z,94125.91
2024-01-15T12:20:53.374Z,94123.69
2024-01-15T12:23:33.154Z,94115.59
2024-01-15T12:26:13.884Z,94116.38
2024-01-15T12:28:54.914Z,94091.63
2024-01-15T12:43:15.284Z,94069.66
2024-01-15T12:45:51.093Z,94073.34
2024-01-15T12:48:27.906Z,94073.75
2024-01-15T12:51:09.925Z,94079.94
2024-01-15T12:54:27.531Z,94085.44
2024-01-15T12:56:38.731Z,94085.31
2024-01-15T12:59:25.841Z,94076.69
2024-01-15T13:02:07.722Z,94070.75
2024-01-15T13:05:04.477Z,94075.13
2024-01-15T13:07:34.478Z,94077.28
2024-01-15T13:10:12.071Z,94065.34
2024-01-15T13:13:09.583Z,94076.06
2024-01-15T13:16:10.244Z,94100.41
2024-01-15T13:18:40.705Z,94097.63
2024-01-15T13:21:14.654Z,94101.03
2024-01-15T13:24:08.165Z,94100.47
2024-01-15T13:26:42.693Z,94027.16
2024-01-15T13:29:34.439Z,94100.69
2024-01-15T13:32:07.644Z,94102.09
2024-01-15T13:34:36.456Z,94104.34
2024-01-15T13:37:20.622Z,94100.19
2024-01-15T13:40:11.450Z,94101.75
2024-01-15T13:42:56.796Z,94099.53
2024-01-15T13:46:04.821Z,94103.88
2024-01-15T13:49:19.068Z,94101.75
2024-01-15T13:58:24.592Z,94108.72
2024-01-15T14:00:55.151Z,94102.03
2024-01-15T14:03:30.835Z,94103.16
2024-01-15T14:06:19.062Z,94099.81
2024-01-15T14:12:23.090Z,94108.47
2024-01-15T14:20:50.188Z,94110.75
2024-01-15T14:33:24.174Z,94120.28
2024-01-15T14:36:21.120Z,94122.25
2024-01-15T14:39:09.538Z,94129.06
2024-01-15T14:42:04.708Z,94133.34
2024-01-15T14:44:40.033Z,94131.66
2024-01-15T14:47:19.369Z,94146.72
2024-01-15T14:50:03.892Z,94132.75
2024-01-15T14:59:18.999Z,94139.50
2024-01-15T15:02:09.463Z,94138.22
2024-01-15T15:04:54.485Z,94163.38
2024-01-15T15:07:34.506Z,94148.91
2024-01-15T15:10:15.943Z,94149.00
2024-01-15T15:12:59.005Z,94157.31
2024-01-15T15:15:36.836Z,94157.38
2024-01-15T15:18:15.710Z,94167.53
2024-01-15T15:24:12.220Z,94171.09
2024-01-15T15:27:30.727Z,94184.53
2024-01-15T15:30:09.078Z,94194.56
2024-01-15T15:32:58.967Z,94191.38
2024-01-15T15:35:34.978Z,94194.94
2024-01-15T15:38:22.494Z,94201.41
2024-01-15T15:41:19.557Z,94195.78
2024-01-15T15:43:59.411Z,94193.03
2024-01-15T15:49:23.143Z,94183.41
2024-01-15T15:50:20.090Z,94209.44
2024-01-15T15:53:08.348Z,94198.66
2024-01-15T15:55:40.673Z,94210.09
2024-01-15T15:59:22.144Z,94220.03
2024-01-15T16:01:45.684Z,94222.63
2024-01-15T16:04:23.389Z,94234.06
2024-01-15T16:07:15.300Z,94229.25
2024-01-15T16:09:56.376Z,94242.06
2024-01-15T16:12:24.888Z,94252.25
2024-01-15T16:15:06.849Z,94267.69
2024-01-15T16:23:18.529Z,94256.09
2024-01-15T16:23:36.565Z,94260.81
2024-01-15T16:24:17.670Z,94261.72
2024-01-15T16:27:25.668Z,94260.13
2024-01-15T16:30:12.352Z,94255.47
2024-01-15T16:33:04.183Z,94257.91
2024-01-15T16:38:41.953Z,94268.59
2024-01-15T16:41:16.973Z,94267.72
2024-01-15T16:43:52.987Z,94273.72
2024-01-15T16:46:35.379Z,94273.16
2024-01-15T16:49:11.685Z,94279.88
2024-01-15T16:55:23.158Z,94296.13
2024-01-15T16:58:03.898Z,94285.78
2024-01-15T17:00:36.324Z,94303.28
2024-01-15T17:03:12.122Z,94304.50
2024-01-15T17:05:55.780Z,94302.72
2024-01-15T17:08:37.873Z,94310.28
2024-01-15T17:12:06.839Z,94317.63
2024-01-15T17:15:15.389Z,94321.97
2024-01-15T17:18:19.262Z,94317.88
2024-01-15T17:21:05.279Z,94320.66
2024-01-15T17:23:50.858Z,94327.00
2024-01-15T17:26:45.601Z,94328.34
2024-01-15T17:29:28.296Z,94333.91
2024-01-15T17:32:09.107Z,94334.47
2024-01-15T17:34:44.808Z,94328.00
2024-01-15T17:37:27.516Z,94335.56
2024-01-15T17:42:30.582Z,94360.53
2024-01-15T17:43:15.384Z,94381.88
2024-01-15T17:45:54.500Z,94403.09
2024-01-15T17:48:33.322Z,94379.84
2024-01-15T17:51:23.377Z,94382.94
2024-01-15T17:53:57.587Z,94394.25
2024-01-15T17:56:37.631Z,94415.13
2024-01-15T17:59:18.580Z,94417.75
2024-01-15T18:05:06.457Z,94417.19
2024-01-15T18:07:47.645Z,94432.63
2024-01-15T18:10:28.497Z,94416.53
2024-01-15T18:13:42.611Z,94422.16
2024-01-15T18:16:23.354Z,94428.19
2024-01-15T18:19:10.671Z,94428.63
2024-01-15T18:22:36.467Z,94436.69
2024-01-15T18:25:07.658Z,94433.81
2024-01-15T18:28:24.831Z,94426.44
2024-01-15T18:31:08.727Z,94443.03
2024-01-15T18:40:44.271Z,94454.13
2024-01-15T18:44:01.174Z,94453.06
2024-01-15T18:52:46.106Z,94435.56
2024-01-15T18:55:31.888Z,94437.72
2024-01-15T19:22:13.397Z,94465.59
2024-01-15T19:25:52.154Z,94482.78
2024-01-15T19:33:43.936Z,94483.28
2024-01-15T19:39:20.729Z,94500.19
2024-01-15T20:02:10.577Z,94540.16
2024-01-15T20:04:40.925Z,94541.38
2024-01-15T20:07:15.495Z,94556.91
2024-01-15T20:13:07.904Z,94549.41
2024-01-15T20:18:52.372Z,94570.91
2024-01-15T20:22:03.276Z,94574.97
2024-01-15T20:29:25.023Z,94591.84
2024-01-15T20:31:36.048Z,94592.94
2024-01-15T20:34:49.100Z,94593.91
2024-01-15T20:37:39.439Z,94603.34
2024-01-15T20:40:50.284Z,94615.13
2024-01-15T20:44:04.690Z,94621.63
2024-01-15T20:47:21.503Z,94623.25
2024-01-15T20:50:04.097Z,94638.72
2024-01-15T20:53:15.194Z,94641.84
2024-01-15T20:55:40.085Z,94651.22
2024-01-15T20:58:15.444Z,94654.50
2024-01-15T21:00:46.124Z,94664.16
2024-01-15T21:03:30.564Z,94666.28
2024-01-15T21:06:49.299Z,94662.34
2024-01-15T21:10:05.098Z,94661.13
2024-01-15T21:13:23.680Z,94676.44
2024-01-15T21:19:42.553Z,94683.22
2024-01-15T21:22:24.767Z,94689.13
2024-01-15T21:25:01.091Z,94690.50
2024-01-15T21:27:42.535Z,94687.00
2024-01-15T21:30:12.201Z,94691.66
2024-01-15T21:32:50.945Z,94692.41
2024-01-15T21:35:18.954Z,94694.06
2024-01-15T21:37:49.645Z,94710.34
2024-01-15T21:41:19.408Z,94709.75
2024-01-15T21:44:08.364Z,94708.41
2024-01-15T21:47:35.450Z,94709.38
2024-01-15T21:55:46.623Z,94708.25
2024-01-15T21:58:39.983Z,94709.19
2024-01-15T22:01:50.049Z,94706.09
2024-01-15T22:04:42.933Z,94702.34
2024-01-15T22:10:10.723Z,94703.09
2024-01-15T22:12:44.962Z,94704.09
2024-01-15T22:15:42.549Z,94705.09
2024-01-15T22:18:20.847Z,94714.69
2024-01-15T22:21:01.043Z,94711.38
2024-01-15T22:23:58.057Z,94723.00
2024-01-15T22:26:53.257Z,94708.44
2024-01-15T22:29:56.150Z,94711.78
2024-01-15T22:32:37.656Z,94712.75
2024-01-15T22:35:15.742Z,94702.53
2024-01-15T22:38:09.124Z,94718.06
2024-01-15T22:43:41.389Z,94718.06
2024-01-15T22:46:29.832Z,94737.66
2024-01-15T22:49:10.304Z,94736.88
2024-01-15T22:52:38.438Z,94734.13
2024-01-15T22:56:12.375Z,94737.44
2024-01-15T23:03:17.056Z,94737.09
2024-01-15T23:06:13.671Z,94742.00
2024-01-15T23:09:06.779Z,94745.09
2024-01-15T23:16:11.057Z,94765.75
2024-01-15T23:18:32.229Z,94763.97
2024-01-15T23:21:38.846Z,94774.38
2024-01-15T23:25:10.844Z,94779.72
2024-01-15T23:28:27.550Z,94775.16
2024-01-15T23:31:23.440Z,94778.31
2024-01-15T23:34:06.209Z,94781.84
2024-01-15T23:36:40.472Z,94785.34
2024-01-15T23:39:13.758Z,94787.16
2024-01-15T23:42:34.746Z,94783.84
2024-01-15T23:45:09.886Z,94786.56
2024-01-15T23:47:43.992Z,94780.63
2024-01-15T23:50:42.395Z,94776.72
2024-01-15T23:53:15.729Z,94776.13
2024-01-15T23:56:06.427Z,94784.03
2024-01-15T23:58:43.461Z,94787.38
